sensor_id;sensor_type;location;lat;lon;timestamp;pressure;altitude;pressure_sealevel;temperature;humidity
34328;BME280;20588;48.840;10.064;2023-04-08T00:00:13;96649.88;;;7.67;100.00
34328;BME280;20588;48.840;10.064;2023-04-08T00:02:39;96650.50;;;7.69;100.00
34328;BME280;20588;48.840;10.064;2023-04-08T00:05:06;96655.63;;;7.69;100.00
34328;BME280;20588;48.840;10.064;2023-04-08T00:07:32;96658.38;;;7.68;100.00
34328;BME280;20588;48.840;10.064;2023-04-08T00:09:59;96656.38;;;7.70;100.00
34328;BME280;20588;48.840;10.064;2023-04-08T00:12:25;96655.44;;;7.71;100.00
34328;BME280;20588;48.840;10.064;2023-04-08T00:14:51;96659.56;;;7.72;100.00
34328;BME280;20588;48.840;10.064;2023-04-08T00:17:17;96656.81;;;7.73;100.00
34328;BME280;20588;48.840;10.064;2023-04-08T00:19:43;96660.38;;;7.72;100.00
34328;BME280;20588;48.840;10.064;2023-04-08T00:22:10;96657.81;;;7.72;100.00
34328;BME280;20588;48.840;10.064;2023-04-08T00:24:36;96656.81;;;7.73;100.00
34328;BME280;20588;48.840;10.064;2023-04-08T00:27:02;96659.19;;;7.75;100.00
34328;BME280;20588;48.840;10.064;2023-04-08T00:29:29;96661.56;;;7.76;100.00
34328;BME280;20588;48.840;10.064;2023-04-08T00:31:55;96659.00;;;7.76;100.00
34328;BME280;20588;48.840;10.064;2023-04-08T00:34:21;96656.44;;;7.76;100.00
34328;BME280;20588;48.840;10.064;2023-04-08T00:36:47;96656.88;;;7.80;100.00
34328;BME280;20588;48.840;10.064;2023-04-08T00:39:14;96655.25;;;7.79;100.00
34328;BME280;20588;48.840;10.064;2023-04-08T00:41:40;96660.00;;;7.82;100.00
34328;BME280;20588;48.840;10.064;2023-04-08T00:44:06;96663.38;;;7.82;100.00
34328;BME280;20588;48.840;10.064;2023-04-08T00:46:37;96653.50;;;7.79;100.00
34328;BME280;20588;48.840;10.064;2023-04-08T00:49:04;96655.25;;;7.79;100.00
34328;BME280;20588;48.840;10.064;2023-04-08T00:51:32;96661.38;;;7.78;100.00
34328;BME280;20588;48.840;10.064;2023-04-08T00:53:59;96657.63;;;7.80;100.00
34328;BME280;20588;48.840;10.064;2023-04-08T00:56:25;96662.56;;;7.82;100.00
34328;BME280;20588;48.840;10.064;2023-04-08T00:58:52;96658.63;;;7.79;100.00
34328;BME280;20588;48.840;10.064;2023-04-08T01:07:36;96655.06;;;7.80;100.00
34328;BME280;20588;48.840;10.064;2023-04-08T01:10:07;96658.25;;;7.82;100.00
34328;BME280;20588;48.840;10.064;2023-04-08T01:12:43;96658.25;;;7.82;100.00
34328;BME280;20588;48.840;10.064;2023-04-08T01:15:12;96655.69;;;7.82;100.00
34328;BME280;20588;48.840;10.064;2023-04-08T01:17:40;96658.25;;;7.82;100.00
34328;BME280;20588;48.840;10.064;2023-04-08T01:20:08;96654.69;;;7.83;100.00
34328;BME280;20588;48.840;10.064;2023-04-08T01:25:22;96664.38;;;7.88;100.00
34328;BME280;20588;48.840;10.064;2023-04-08T01:27:49;96657.50;;;7.88;100.00
34328;BME280;20588;48.840;10.064;2023-04-08T01:30:18;96656.69;;;7.88;100.00
34328;BME280;20588;48.840;10.064;2023-04-08T01:32:45;96655.13;;;7.87;100.00
34328;BME280;20588;48.840;10.064;2023-04-08T01:35:13;96650.78;;;7.87;100.00
34328;BME280;20588;48.840;10.064;2023-04-08T01:37:40;96651.75;;;7.86;100.00
34328;BME280;20588;48.840;10.064;2023-04-08T01:40:08;96650.19;;;7.85;100.00
34328;BME280;20588;48.840;10.064;2023-04-08T01:42:36;96646.81;;;7.85;100.00
34328;BME280;20588;48.840;10.064;2023-04-08T01:45:03;96650.38;;;7.84;100.00
34328;BME280;20588;48.840;10.064;2023-04-08T01:47:31;96654.69;;;7.83;100.00
34328;BME280;20588;48.840;10.064;2023-04-08T01:49:59;96652.13;;;7.83;100.00
34328;BME280;20588;48.840;10.064;2023-04-08T01:52:26;96648.81;;;7.83;100.00
34328;BME280;20588;48.840;10.064;2023-04-08T01:54:53;96646.44;;;7.81;100.00
34328;BME280;20588;48.840;10.064;2023-04-08T01:57:23;96645.63;;;7.81;100.00
34328;BME280;20588;48.840;10.064;2023-04-08T01:59:54;96642.25;;;7.80;100.00
34328;BME280;20588;48.840;10.064;2023-04-08T02:02:23;96642.44;;;7.79;100.00
34328;BME280;20588;48.840;10.064;2023-04-08T02:04:50;96649.56;;;7.77;100.00
34328;BME280;20588;48.840;10.064;2023-04-08T02:07:16;96643.63;;;7.76;100.00
34328;BME280;20588;48.840;10.064;2023-04-08T02:09:42;96647.19;;;7.75;100.00
34328;BME280;20588;48.840;10.064;2023-04-08T02:12:09;96645.59;;;7.74;100.00
34328;BME280;20588;48.840;10.064;2023-04-08T02:14:35;96647.94;;;7.76;100.00
34328;BME280;20588;48.840;10.064;2023-04-08T02:17:07;96647.19;;;7.75;100.00
34328;BME280;20588;48.840;10.064;2023-04-08T02:19:58;96645.97;;;7.71;100.00
34328;BME280;20588;48.840;10.064;2023-04-08T02:25:05;96644.38;;;7.70;100.00
34328;BME280;20588;48.840;10.064;2023-04-08T02:27:35;96646.94;;;7.70;100.00
34328;BME280;20588;48.840;10.064;2023-04-08T02:30:04;96647.13;;;7.69;100.00
34328;BME280;20588;48.840;10.064;2023-04-08T02:32:32;96641.41;;;7.67;100.00
34328;BME280;20588;48.840;10.064;2023-04-08T02:35:00;96643.19;;;7.66;100.00
34328;BME280;20588;48.840;10.064;2023-04-08T02:37:29;96652.03;;;7.64;100.00
34328;BME280;20588;48.840;10.064;2023-04-08T02:39:55;96647.09;;;7.62;100.00
34328;BME280;20588;48.840;10.064;2023-04-08T02:42:21;96646.13;;;7.63;100.00
34328;BME280;20588;48.840;10.064;2023-04-08T02:44:48;96650.25;;;7.64;100.00
34328;BME280;20588;48.840;10.064;2023-04-08T02:47:14;96646.91;;;7.64;100.00
34328;BME280;20588;48.840;10.064;2023-04-08T02:49:41;96651.06;;;7.65;100.00
34328;BME280;20588;48.840;10.064;2023-04-08T02:52:07;96652.63;;;7.66;100.00
34328;BME280;20588;48.840;10.064;2023-04-08T02:54:33;96650.88;;;7.66;100.00
34328;BME280;20588;48.840;10.064;2023-04-08T02:56:59;96651.47;;;7.68;100.00
34328;BME280;20588;48.840;10.064;2023-04-08T02:59:25;96650.50;;;7.69;100.00
34328;BME280;20588;48.840;10.064;2023-04-08T03:01:51;96652.44;;;7.67;100.00
34328;BME280;20588;48.840;10.064;2023-04-08T03:04:18;96651.06;;;7.65;100.00
34328;BME280;20588;48.840;10.064;2023-04-08T03:06:44;96646.91;;;7.64;100.00
34328;BME280;20588;48.840;10.064;2023-04-08T03:09:10;96646.91;;;7.64;100.00
34328;BME280;20588;48.840;10.064;2023-04-08T03:11:36;96645.13;;;7.64;100.00
34328;BME280;20588;48.840;10.064;2023-04-08T03:14:02;96647.50;;;7.66;100.00
34328;BME280;20588;48.840;10.064;2023-04-08T03:16:28;96648.31;;;7.66;100.00
34328;BME280;20588;48.840;10.064;2023-04-08T03:18:54;96648.31;;;7.66;100.00
34328;BME280;20588;48.840;10.064;2023-04-08T03:21:20;96642.59;;;7.64;100.00
34328;BME280;20588;48.840;10.064;2023-04-08T03:23:46;96654.41;;;7.65;100.00
34328;BME280;20588;48.840;10.064;2023-04-08T03:26:12;96651.06;;;7.65;100.00
34328;BME280;20588;48.840;10.064;2023-04-08T03:28:38;96655.00;;;7.67;100.00
34328;BME280;20588;48.840;10.064;2023-04-08T03:31:04;96656.00;;;7.73;100.00
34328;BME280;20588;48.840;10.064;2023-04-08T03:33:30;96657.81;;;7.72;100.00
34328;BME280;20588;48.840;10.064;2023-04-08T03:35:57;96659.75;;;7.70;100.00
34328;BME280;20588;48.840;10.064;2023-04-08T03:38:23;96660.75;;;7.69;100.00
34328;BME280;20588;48.840;10.064;2023-04-08T03:40:49;96664.06;;;7.70;100.00
34328;BME280;20588;48.840;10.064;2023-04-08T03:43:15;96658.94;;;7.70;100.00
34328;BME280;20588;48.840;10.064;2023-04-08T03:45:41;96663.13;;;7.71;100.00
34328;BME280;20588;48.840;10.064;2023-04-08T03:48:07;96659.75;;;7.70;100.00
34328;BME280;20588;48.840;10.064;2023-04-08T03:50:33;96665.88;;;7.69;100.00
34328;BME280;20588;48.840;10.064;2023-04-08T03:52:59;96657.38;;;7.69;100.00
34328;BME280;20588;48.840;10.064;2023-04-08T03:55:25;96661.69;;;7.68;100.00
34328;BME280;20588;48.840;10.064;2023-04-08T03:57:52;96660.56;;;7.71;100.00
34328;BME280;20588;48.840;10.064;2023-04-08T04:00:18;96663.88;;;7.71;100.00
34328;BME280;20588;48.840;10.064;2023-04-08T04:02:44;96662.31;;;7.70;100.00
34328;BME280;20588;48.840;10.064;2023-04-08T04:05:10;96663.31;;;7.69;100.00
34328;BME280;20588;48.840;10.064;2023-04-08T04:07:36;96661.50;;;7.70;100.00
34328;BME280;20588;48.840;10.064;2023-04-08T04:10:02;96659.13;;;7.68;100.00
34328;BME280;20588;48.840;10.064;2023-04-08T04:12:28;96672.94;;;7.67;100.00
34328;BME280;20588;48.840;10.064;2023-04-08T04:14:55;96676.47;;;7.66;100.00
34328;BME280;20588;48.840;10.064;2023-04-08T04:17:21;96673.91;;;7.66;100.00
34328;BME280;20588;48.840;10.064;2023-04-08T04:19:47;96680.81;;;7.66;100.00
34328;BME280;20588;48.840;10.064;2023-04-08T04:22:13;96672.31;;;7.65;100.00
34328;BME280;20588;48.840;10.064;2023-04-08T04:24:39;96679.03;;;7.66;100.00
34328;BME280;20588;48.840;10.064;2023-04-08T04:27:05;96685.13;;;7.65;100.00
34328;BME280;20588;48.840;10.064;2023-04-08T04:29:31;96681.00;;;7.64;100.00
34328;BME280;20588;48.840;10.064;2023-04-08T04:31:57;96685.31;;;7.64;100.00
34328;BME280;20588;48.840;10.064;2023-04-08T04:34:23;96685.88;;;7.59;100.00
34328;BME280;20588;48.840;10.064;2023-04-08T04:36:49;96681.94;;;7.57;100.00
34328;BME280;20588;48.840;10.064;2023-04-08T04:39:16;96688.44;;;7.59;100.00
34328;BME280;20588;48.840;10.064;2023-04-08T04:41:42;96690.41;;;7.57;100.00
34328;BME280;20588;48.840;10.064;2023-04-08T04:44:09;96694.34;;;7.60;100.00
34328;BME280;20588;48.840;10.064;2023-04-08T04:46:35;96690.41;;;7.57;100.00
34328;BME280;20588;48.840;10.064;2023-04-08T04:49:01;96691.19;;;7.58;100.00
34328;BME280;20588;48.840;10.064;2023-04-08T04:51:27;96688.81;;;7.56;100.00
34328;BME280;20588;48.840;10.064;2023-04-08T04:53:55;96685.47;;;7.56;100.00
34328;BME280;20588;48.840;10.064;2023-04-08T04:56:21;96692.34;;;7.55;100.00
34328;BME280;20588;48.840;10.064;2023-04-08T04:58:47;96698.47;;;7.54;100.00
34328;BME280;20588;48.840;10.064;2023-04-08T05:01:13;96696.09;;;7.53;100.00
34328;BME280;20588;48.840;10.064;2023-04-08T05:03:39;96701.97;;;7.53;100.00
34328;BME280;20588;48.840;10.064;2023-04-08T05:06:06;96702.59;;;7.55;100.00
34328;BME280;20588;48.840;10.064;2023-04-08T05:08:32;96710.28;;;7.55;100.00
34328;BME280;20588;48.840;10.064;2023-04-08T05:10:58;96711.47;;;7.59;100.00
34328;BME280;20588;48.840;10.064;2023-04-08T05:13:27;96715.81;;;7.59;100.00
34328;BME280;20588;48.840;10.064;2023-04-08T05:15:53;96713.84;;;7.61;100.00
34328;BME280;20588;48.840;10.064;2023-04-08T05:18:19;96714.66;;;7.61;100.00
34328;BME280;20588;48.840;10.064;2023-04-08T05:20:45;96720.75;;;7.60;100.00
34328;BME280;20588;48.840;10.064;2023-04-08T05:23:12;96716.84;;;7.64;100.00
34328;BME280;20588;48.840;10.064;2023-04-08T05:25:38;96720.97;;;7.65;100.00
34328;BME280;20588;48.840;10.064;2023-04-08T05:28:04;96729.47;;;7.66;100.00
34328;BME280;20588;48.840;10.064;2023-04-08T05:30:30;96726.91;;;7.66;100.00
34328;BME280;20588;48.840;10.064;2023-04-08T05:32:56;96729.28;;;7.67;100.00
34328;BME280;20588;48.840;10.064;2023-04-08T05:35:22;96727.72;;;7.73;100.00
34328;BME280;20588;48.840;10.064;2023-04-08T05:37:48;96726.75;;;7.74;100.00
34328;BME280;20588;48.840;10.064;2023-04-08T05:40:14;96725.16;;;7.73;100.00
34328;BME280;20588;48.840;10.064;2023-04-08T05:42:41;96732.47;;;7.76;100.00
34328;BME280;20588;48.840;10.064;2023-04-08T05:45:07;96736.44;;;7.78;100.00
34328;BME280;20588;48.840;10.064;2023-04-08T05:47:33;96741.22;;;7.88;100.00
34328;BME280;20588;48.840;10.064;2023-04-08T05:49:59;96745.75;;;7.86;100.00
34328;BME280;20588;48.840;10.064;2023-04-08T05:52:26;96742.44;;;7.92;100.00
34328;BME280;20588;48.840;10.064;2023-04-08T05:54:52;96739.69;;;7.93;100.00
34328;BME280;20588;48.840;10.064;2023-04-08T05:57:18;96739.72;;;8.00;100.00
34328;BME280;20588;48.840;10.064;2023-04-08T05:59:44;96751.00;;;8.05;100.00
34328;BME280;20588;48.840;10.064;2023-04-08T06:02:10;96750.06;;;8.13;100.00
34328;BME280;20588;48.840;10.064;2023-04-08T06:04:36;96749.56;;;8.24;100.00
34328;BME280;20588;48.840;10.064;2023-04-08T06:07:03;96748.00;;;8.29;100.00
34328;BME280;20588;48.840;10.064;2023-04-08T06:09:33;96752.56;;;8.34;100.00
34328;BME280;20588;48.840;10.064;2023-04-08T06:11:59;96760.31;;;8.40;100.00
34328;BME280;20588;48.840;10.064;2023-04-08T06:14:25;96760.69;;;8.44;100.00
34328;BME280;20588;48.840;10.064;2023-04-08T06:16:51;96768.25;;;8.52;100.00
34328;BME280;20588;48.840;10.064;2023-04-08T06:19:19;96765.91;;;8.57;100.00
34328;BME280;20588;48.840;10.064;2023-04-08T06:21:45;96769.28;;;8.64;100.00
34328;BME280;20588;48.840;10.064;2023-04-08T06:24:12;96768.16;;;8.79;100.00
34328;BME280;20588;48.840;10.064;2023-04-08T06:26:38;96770.19;;;8.90;100.00
34328;BME280;20588;48.840;10.064;2023-04-08T06:29:04;96765.66;;;8.99;100.00
34328;BME280;20588;48.840;10.064;2023-04-08T06:31:30;96758.59;;;9.21;100.00
34328;BME280;20588;48.840;10.064;2023-04-08T06:33:56;96761.97;;;9.41;100.00
34328;BME280;20588;48.840;10.064;2023-04-08T06:36:22;96763.59;;;9.68;100.00
34328;BME280;20588;48.840;10.064;2023-04-08T06:38:48;96764.34;;;9.88;98.00
34328;BME280;20588;48.840;10.064;2023-04-08T06:41:14;96765.91;;;9.95;96.43
34328;BME280;20588;48.840;10.064;2023-04-08T06:43:40;96760.78;;;10.02;95.56
34328;BME280;20588;48.840;10.064;2023-04-08T06:46:06;96768.88;;;10.12;93.99
34328;BME280;20588;48.840;10.064;2023-04-08T06:48:32;96765.16;;;10.08;92.72
34328;BME280;20588;48.840;10.064;2023-04-08T06:51:00;96772.47;;;10.11;91.60
34328;BME280;20588;48.840;10.064;2023-04-08T06:53:27;96775.22;;;10.16;91.46
34328;BME280;20588;48.840;10.064;2023-04-08T06:55:57;96769.84;;;10.24;89.42
34328;BME280;20588;48.840;10.064;2023-04-08T06:58:23;96778.56;;;10.23;88.67
34328;BME280;20588;48.840;10.064;2023-04-08T07:00:49;96783.72;;;10.29;88.07
34328;BME280;20588;48.840;10.064;2023-04-08T07:03:15;96779.72;;;10.33;87.98
34328;BME280;20588;48.840;10.064;2023-04-08T07:05:42;96786.06;;;10.37;87.98
34328;BME280;20588;48.840;10.064;2023-04-08T07:08:08;96783.47;;;10.44;86.88
34328;BME280;20588;48.840;10.064;2023-04-08T07:10:34;96777.09;;;10.53;85.70
34328;BME280;20588;48.840;10.064;2023-04-08T07:13:01;96782.03;;;10.54;84.99
34328;BME280;20588;48.840;10.064;2023-04-08T07:15:27;96781.63;;;10.57;83.63
34328;BME280;20588;48.840;10.064;2023-04-08T07:17:53;96782.03;;;10.61;83.81
34328;BME280;20588;48.840;10.064;2023-04-08T07:20:22;96781.81;;;10.69;83.50
34328;BME280;20588;48.840;10.064;2023-04-08T07:22:48;96786.50;;;10.78;82.21
34328;BME280;20588;48.840;10.064;2023-04-08T07:25:14;96789.25;;;10.90;80.74
34328;BME280;20588;48.840;10.064;2023-04-08T07:27:40;96789.78;;;10.98;79.17
34328;BME280;20588;48.840;10.064;2023-04-08T07:30:07;96782.78;;;11.12;78.50
34328;BME280;20588;48.840;10.064;2023-04-08T07:32:34;96792.44;;;11.30;77.57
34328;BME280;20588;48.840;10.064;2023-04-08T07:35:00;96787.91;;;11.50;76.40
34328;BME280;20588;48.840;10.064;2023-04-08T07:37:27;96791.03;;;11.58;75.32
34328;BME280;20588;48.840;10.064;2023-04-08T07:39:53;96800.69;;;11.69;74.32
34328;BME280;20588;48.840;10.064;2023-04-08T07:42:19;96802.94;;;11.59;73.21
34328;BME280;20588;48.840;10.064;2023-04-08T07:44:45;96801.56;;;11.57;73.40
34328;BME280;20588;48.840;10.064;2023-04-08T07:47:12;96799.81;;;11.51;73.55
34328;BME280;20588;48.840;10.064;2023-04-08T07:49:38;96805.19;;;11.49;74.05
34328;BME280;20588;48.840;10.064;2023-04-08T07:52:05;96807.97;;;11.48;73.36
34328;BME280;20588;48.840;10.064;2023-04-08T07:54:32;96802.44;;;11.44;72.19
34328;BME280;20588;48.840;10.064;2023-04-08T07:56:59;96805.00;;;11.44;72.60
34328;BME280;20588;48.840;10.064;2023-04-08T07:59:26;96813.88;;;11.48;71.89
34328;BME280;20588;48.840;10.064;2023-04-08T08:01:53;96812.91;;;11.49;71.76
34328;BME280;20588;48.840;10.064;2023-04-08T08:04:19;96808.66;;;11.61;72.66
34328;BME280;20588;48.840;10.064;2023-04-08T08:06:46;96819.66;;;11.81;72.26
34328;BME280;20588;48.840;10.064;2023-04-08T08:09:12;96818.03;;;12.11;71.11
34328;BME280;20588;48.840;10.064;2023-04-08T08:11:38;96820.06;;;12.27;69.52
34328;BME280;20588;48.840;10.064;2023-04-08T08:14:04;96823.94;;;12.36;67.13
34328;BME280;20588;48.840;10.064;2023-04-08T08:16:31;96826.63;;;12.48;65.88
34328;BME280;20588;48.840;10.064;2023-04-08T08:18:58;96829.44;;;12.64;65.32
34328;BME280;20588;48.840;10.064;2023-04-08T08:21:24;96827.50;;;12.78;64.61
34328;BME280;20588;48.840;10.064;2023-04-08T08:23:54;96836.13;;;13.08;63.79
34328;BME280;20588;48.840;10.064;2023-04-08T08:26:21;96826.66;;;13.32;61.40
34328;BME280;20588;48.840;10.064;2023-04-08T08:28:47;96835.31;;;13.55;61.50
34328;BME280;20588;48.840;10.064;2023-04-08T08:31:14;96825.34;;;13.82;60.73
34328;BME280;20588;48.840;10.064;2023-04-08T08:33:40;96826.41;;;14.15;57.99
34328;BME280;20588;48.840;10.064;2023-04-08T08:36:06;96827.00;;;14.52;56.83
34328;BME280;20588;48.840;10.064;2023-04-08T08:38:32;96825.81;;;14.94;56.38
34328;BME280;20588;48.840;10.064;2023-04-08T08:40:59;96832.31;;;15.36;54.33
34328;BME280;20588;48.840;10.064;2023-04-08T08:43:26;96836.06;;;15.68;55.89
34328;BME280;20588;48.840;10.064;2023-04-08T08:45:54;96836.91;;;15.74;52.98
34328;BME280;20588;48.840;10.064;2023-04-08T08:48:20;96841.09;;;15.75;54.64
34328;BME280;20588;48.840;10.064;2023-04-08T08:50:46;96848.63;;;15.60;52.56
34328;BME280;20588;48.840;10.064;2023-04-08T08:53:12;96840.28;;;15.58;52.29
34328;BME280;20588;48.840;10.064;2023-04-08T08:55:38;96833.28;;;15.58;52.59
34328;BME280;20588;48.840;10.064;2023-04-08T08:58:06;96842.47;;;15.49;52.26
34328;BME280;20588;48.840;10.064;2023-04-08T09:00:42;96848.38;;;15.61;52.33
34328;BME280;20588;48.840;10.064;2023-04-08T09:03:20;96845.28;;;15.92;50.60
34328;BME280;20588;48.840;10.064;2023-04-08T09:05:52;96845.13;;;16.15;49.66
34328;BME280;20588;48.840;10.064;2023-04-08T09:08:28;96849.22;;;16.28;49.21
34328;BME280;20588;48.840;10.064;2023-04-08T09:11:09;96857.25;;;16.27;48.47
34328;BME280;20588;48.840;10.064;2023-04-08T09:13:36;96860.47;;;16.00;49.60
34328;BME280;20588;48.840;10.064;2023-04-08T09:16:03;96855.25;;;15.67;50.45
34328;BME280;20588;48.840;10.064;2023-04-08T09:18:30;96857.28;;;15.26;51.00
34328;BME280;20588;48.840;10.064;2023-04-08T09:20:59;96854.31;;;14.94;51.49
34328;BME280;20588;48.840;10.064;2023-04-08T09:23:41;96848.28;;;14.42;52.94
34328;BME280;20588;48.840;10.064;2023-04-08T09:26:09;96851.72;;;14.02;53.21
34328;BME280;20588;48.840;10.064;2023-04-08T09:28:36;96852.19;;;13.69;54.08
34328;BME280;20588;48.840;10.064;2023-04-08T09:31:25;96849.22;;;13.54;54.23
34328;BME280;20588;48.840;10.064;2023-04-08T09:33:54;96852.84;;;13.24;54.67
34328;BME280;20588;48.840;10.064;2023-04-08T09:36:21;96849.91;;;13.02;55.74
34328;BME280;20588;48.840;10.064;2023-04-08T09:38:47;96856.28;;;13.00;57.16
34328;BME280;20588;48.840;10.064;2023-04-08T09:41:15;96859.56;;;12.89;57.70
34328;BME280;20588;48.840;10.064;2023-04-08T09:43:49;96860.44;;;12.83;58.02
34328;BME280;20588;48.840;10.064;2023-04-08T09:46:18;96863.22;;;12.81;58.43
34328;BME280;20588;48.840;10.064;2023-04-08T09:51:52;96861.13;;;12.71;59.38
34328;BME280;20588;48.840;10.064;2023-04-08T09:54:23;96868.50;;;12.68;58.78
34328;BME280;20588;48.840;10.064;2023-04-08T09:57:00;96868.16;;;12.64;58.97
34328;BME280;20588;48.840;10.064;2023-04-08T09:59:30;96869.16;;;12.63;59.03
34328;BME280;20588;48.840;10.064;2023-04-08T10:02:03;96872.69;;;12.69;58.32
34328;BME280;20588;48.840;10.064;2023-04-08T10:04:33;96874.47;;;12.68;58.49
34328;BME280;20588;48.840;10.064;2023-04-08T10:07:03;96873.41;;;12.76;58.62
34328;BME280;20588;48.840;10.064;2023-04-08T10:09:31;96866.47;;;12.77;58.81
34328;BME280;20588;48.840;10.064;2023-04-08T10:11:58;96861.63;;;12.62;59.08
34328;BME280;20588;48.840;10.064;2023-04-08T10:14:25;96866.00;;;12.61;60.52
34328;BME280;20588;48.840;10.064;2023-04-08T10:17:25;96871.81;;;12.57;59.94
34328;BME280;20588;48.840;10.064;2023-04-08T10:19:52;96879.63;;;12.50;60.00
34328;BME280;20588;48.840;10.064;2023-04-08T10:27:44;96872.97;;;12.36;58.42
34328;BME280;20588;48.840;10.064;2023-04-08T10:32:58;96872.69;;;12.26;57.12
34328;BME280;20588;48.840;10.064;2023-04-08T10:35:42;96880.22;;;12.28;57.70
34328;BME280;20588;48.840;10.064;2023-04-08T10:38:11;96881.88;;;12.40;56.50
34328;BME280;20588;48.840;10.064;2023-04-08T10:40:38;96878.41;;;12.28;57.17
34328;BME280;20588;48.840;10.064;2023-04-08T10:43:07;96882.25;;;12.19;57.49
34328;BME280;20588;48.840;10.064;2023-04-08T10:45:34;96877.22;;;12.31;57.56
34328;BME280;20588;48.840;10.064;2023-04-08T10:50:38;96880.94;;;12.10;57.25
34328;BME280;20588;48.840;10.064;2023-04-08T10:53:05;96874.28;;;12.21;55.71
34328;BME280;20588;48.840;10.064;2023-04-08T10:55:32;96872.63;;;12.08;55.51
34328;BME280;20588;48.840;10.064;2023-04-08T10:58:09;96879.41;;;12.03;56.75
34328;BME280;20588;48.840;10.064;2023-04-08T11:00:38;96883.03;;;11.95;57.62
34328;BME280;20588;48.840;10.064;2023-04-08T11:03:06;96875.50;;;11.94;57.95
34328;BME280;20588;48.840;10.064;2023-04-08T11:05:33;96875.69;;;11.92;57.58
34328;BME280;20588;48.840;10.064;2023-04-08T11:08:00;96862.34;;;12.02;57.82
34328;BME280;20588;48.840;10.064;2023-04-08T11:10:26;96867.34;;;12.21;57.59
34328;BME280;20588;48.840;10.064;2023-04-08T11:12:54;96870.41;;;12.36;56.70
34328;BME280;20588;48.840;10.064;2023-04-08T11:15:22;96875.31;;;12.44;56.72
34328;BME280;20588;48.840;10.064;2023-04-08T11:17:49;96877.19;;;12.55;56.45
34328;BME280;20588;48.840;10.064;2023-04-08T11:20:16;96878.63;;;12.69;54.57
34328;BME280;20588;48.840;10.064;2023-04-08T11:22:43;96876.97;;;12.57;55.21
34328;BME280;20588;48.840;10.064;2023-04-08T11:25:10;96873.38;;;12.58;55.84
34328;BME280;20588;48.840;10.064;2023-04-08T11:27:37;96879.91;;;12.60;56.48
34328;BME280;20588;48.840;10.064;2023-04-08T11:30:05;96875.31;;;12.62;56.18
34328;BME280;20588;48.840;10.064;2023-04-08T11:32:32;96884.84;;;12.62;57.03
34328;BME280;20588;48.840;10.064;2023-04-08T11:35:00;96890.59;;;12.64;56.11
34328;BME280;20588;48.840;10.064;2023-04-08T11:37:35;96893.31;;;12.51;56.14
34328;BME280;20588;48.840;10.064;2023-04-08T11:40:01;96897.16;;;12.42;56.26
34328;BME280;20588;48.840;10.064;2023-04-08T11:42:32;96887.16;;;12.27;56.57
34328;BME280;20588;48.840;10.064;2023-04-08T11:44:58;96897.22;;;12.11;57.14
34328;BME280;20588;48.840;10.064;2023-04-08T11:47:31;96892.50;;;12.01;57.05
34328;BME280;20588;48.840;10.064;2023-04-08T11:49:58;96887.19;;;11.96;58.02
34328;BME280;20588;48.840;10.064;2023-04-08T11:52:47;96896.09;;;12.00;56.92
34328;BME280;20588;48.840;10.064;2023-04-08T11:55:26;96898.81;;;11.81;56.93
34328;BME280;20588;48.840;10.064;2023-04-08T11:57:53;96895.28;;;11.75;57.38
34328;BME280;20588;48.840;10.064;2023-04-08T12:00:21;96893.91;;;11.66;57.85
34328;BME280;20588;48.840;10.064;2023-04-08T12:02:47;96888.06;;;11.84;58.09
34328;BME280;20588;48.840;10.064;2023-04-08T12:05:17;96891.59;;;11.89;58.32
34328;BME280;20588;48.840;10.064;2023-04-08T12:07:43;96886.63;;;11.94;58.18
34328;BME280;20588;48.840;10.064;2023-04-08T12:10:10;96893.81;;;12.10;58.17
34328;BME280;20588;48.840;10.064;2023-04-08T12:12:37;96895.47;;;12.29;58.13
34328;BME280;20588;48.840;10.064;2023-04-08T12:15:03;96894.13;;;12.45;57.33
34328;BME280;20588;48.840;10.064;2023-04-08T12:17:30;96903.66;;;12.51;57.02
34328;BME280;20588;48.840;10.064;2023-04-08T12:19:56;96892.34;;;12.45;56.56
34328;BME280;20588;48.840;10.064;2023-04-08T12:22:22;96897.34;;;12.40;56.04
34328;BME280;20588;48.840;10.064;2023-04-08T12:24:48;96901.84;;;12.27;56.43
34328;BME280;20588;48.840;10.064;2023-04-08T12:27:14;96900.22;;;12.32;56.26
34328;BME280;20588;48.840;10.064;2023-04-08T12:29:40;96891.50;;;12.27;56.21
34328;BME280;20588;48.840;10.064;2023-04-08T12:32:06;96897.63;;;12.32;57.02
34328;BME280;20588;48.840;10.064;2023-04-08T12:34:32;96897.53;;;12.45;56.18
34328;BME280;20588;48.840;10.064;2023-04-08T12:36:59;96897.63;;;12.57;56.70
34328;BME280;20588;48.840;10.064;2023-04-08T12:39:25;96907.53;;;12.60;56.91
34328;BME280;20588;48.840;10.064;2023-04-08T12:41:51;96904.69;;;12.43;57.59
34328;BME280;20588;48.840;10.064;2023-04-08T12:44:17;96905.63;;;12.24;57.50
34328;BME280;20588;48.840;10.064;2023-04-08T12:46:44;96908.75;;;12.08;57.64
34328;BME280;20588;48.840;10.064;2023-04-08T12:49:10;96908.06;;;11.88;57.94
34328;BME280;20588;48.840;10.064;2023-04-08T12:51:37;96908.16;;;11.75;58.47
34328;BME280;20588;48.840;10.064;2023-04-08T12:54:03;96913.75;;;11.66;59.10
34328;BME280;20588;48.840;10.064;2023-04-08T12:56:30;96914.16;;;11.56;60.58
34328;BME280;20588;48.840;10.064;2023-04-08T12:58:57;96903.69;;;11.51;61.50
34328;BME280;20588;48.840;10.064;2023-04-08T13:01:23;96902.91;;;11.51;61.68
34328;BME280;20588;48.840;10.064;2023-04-08T13:03:50;96900.91;;;11.53;61.38
34328;BME280;20588;48.840;10.064;2023-04-08T13:06:16;96895.19;;;11.51;60.56
34328;BME280;20588;48.840;10.064;2023-04-08T13:08:42;96902.69;;;11.52;61.01
34328;BME280;20588;48.840;10.064;2023-04-08T13:11:08;96896.53;;;11.53;60.09
34328;BME280;20588;48.840;10.064;2023-04-08T13:13:35;96895.31;;;11.56;61.30
34328;BME280;20588;48.840;10.064;2023-04-08T13:16:01;96901.66;;;11.60;60.62